createdAt,value
2019-04-30T00:00:18.284Z,10.25
2019-04-30T00:01:18.920Z,10.36
2019-04-30T00:02:17.441Z,10.31
2019-04-30T00:03:19.617Z,10.38
2019-04-30T00:04:17.488Z,10.36
2019-04-30T00:05:18.859Z,10.28
2019-04-30T00:06:17.367Z,10.28
2019-04-30T00:07:18.997Z,10.34
2019-04-30T00:08:17.278Z,10.38
2019-04-30T00:09:18.902Z,10.36
2019-04-30T00:10:17.294Z,10.38
2019-04-30T00:11:19.461Z,10.34
2019-04-30T00:12:17.305Z,10.31
2019-04-30T00:13:20.593Z,10.29
2019-04-30T00:14:17.350Z,10.26
2019-04-30T00:15:19.405Z,10.28
2019-04-30T00:16:17.231Z,10.34
2019-04-30T00:17:19.685Z,10.34
2019-04-30T00:18:17.250Z,10.26
2019-04-30T00:19:19.667Z,10.28
2019-04-30T00:20:17.662Z,10.35
2019-04-30T00:21:18.667Z,10.28
2019-04-30T00:22:17.174Z,10.31
2019-04-30T00:23:18.023Z,10.34
2019-04-30T00:24:18.266Z,10.32
2019-04-30T00:25:19.643Z,10.31
2019-04-30T00:26:18.123Z,10.22
2019-04-30T00:27:20.998Z,10.32
2019-04-30T00:28:18.026Z,10.35
2019-04-30T00:29:26.460Z,10.29
2019-04-30T00:30:18.013Z,10.31
2019-04-30T00:31:23.476Z,10.31
2019-04-30T00:32:17.978Z,10.29
2019-04-30T00:33:22.184Z,10.29
2019-04-30T00:34:17.986Z,10.32
2019-04-30T00:35:19.589Z,10.39
2019-04-30T00:36:17.388Z,10.31
2019-04-30T00:37:18.756Z,10.34
2019-04-30T00:38:16.916Z,10.34
2019-04-30T00:39:17.014Z,10.31
2019-04-30T00:40:16.934Z,10.28
2019-04-30T00:41:17.013Z,10.28
2019-04-30T00:42:23.984Z,10.34
2019-04-30T00:43:17.863Z,10.31
2019-04-30T00:44:20.049Z,10.29
2019-04-30T00:45:17.860Z,10.29
2019-04-30T00:46:24.743Z,10.26
2019-04-30T00:47:17.816Z,10.28
2019-04-30T00:48:26.568Z,10.32
2019-04-30T00:49:22.836Z,10.32
2019-04-30T00:50:17.910Z,10.32
2019-04-30T00:51:21.042Z,10.25
2019-04-30T00:52:16.889Z,10.36
2019-04-30T00:53:16.754Z,10.32
2019-04-30T00:54:17.726Z,10.29
2019-04-30T00:55:16.758Z,10.36
2019-04-30T00:56:19.910Z,10.28
2019-04-30T00:57:17.709Z,10.34
2019-04-30T00:58:24.820Z,10.39
2019-04-30T00:59:17.692Z,10.34
2019-04-30T01:00:24.837Z,10.34
2019-04-30T01:01:17.664Z,10.39
2019-04-30T01:02:19.937Z,10.28
2019-04-30T01:03:17.675Z,10.32
2019-04-30T01:04:19.477Z,10.36
2019-04-30T01:05:17.690Z,10.35
2019-04-30T01:06:23.632Z,10.31
2019-04-30T01:07:17.598Z,10.36
2019-04-30T01:08:21.070Z,10.29
2019-04-30T01:09:17.574Z,10.29
2019-04-30T01:10:19.530Z,10.38
2019-04-30T01:11:17.579Z,10.29
2019-04-30T01:12:17.380Z,10.28
2019-04-30T01:13:19.170Z,10.34
2019-04-30T01:14:16.611Z,10.32
2019-04-30T01:15:16.543Z,10.28
2019-04-30T01:16:16.528Z,10.35
2019-04-30T01:17:16.488Z,10.31
2019-04-30T01:18:16.645Z,10.32
2019-04-30T01:19:27.199Z,10.31
2019-04-30T01:20:19.251Z,10.35
2019-04-30T01:21:18.383Z,10.29
2019-04-30T01:22:21.275Z,10.32
2019-04-30T01:23:19.397Z,10.25
2019-04-30T01:24:16.504Z,10.34
2019-04-30T01:25:16.396Z,10.31
2019-04-30T01:26:18.619Z,10.31
2019-04-30T01:27:16.377Z,10.28
2019-04-30T01:28:20.215Z,10.26
2019-04-30T01:29:19.101Z,10.17
2019-04-30T01:30:21.079Z,10.17
2019-04-30T01:31:18.787Z,10.25
2019-04-30T01:32:17.562Z,10.22
2019-04-30T01:33:16.308Z,10.22
2019-04-30T01:34:16.367Z,10.18
2019-04-30T01:35:16.293Z,10.26
2019-04-30T01:36:16.385Z,10.24
2019-04-30T01:37:16.260Z,10.20
2019-04-30T01:38:16.385Z,10.17
2019-04-30T01:39:16.241Z,10.20
2019-04-30T01:40:16.286Z,10.14
2019-04-30T01:41:20.318Z,10.14
2019-04-30T01:42:18.482Z,10.20
2019-04-30T01:43:16.304Z,10.14
2019-04-30T01:44:16.192Z,10.22
2019-04-30T01:45:16.229Z,10.24
2019-04-30T01:46:16.211Z,10.17
2019-04-30T01:47:16.230Z,10.24
2019-04-30T01:48:16.146Z,10.18
2019-04-30T01:49:16.246Z,10.13
2019-04-30T01:50:16.121Z,10.07
2019-04-30T01:51:20.466Z,10.17
2019-04-30T01:52:17.124Z,10.04
2019-04-30T01:53:16.168Z,10.09
2019-04-30T01:54:20.813Z,10.16
2019-04-30T01:55:17.111Z,10.07
2019-04-30T01:56:16.053Z,10.09
2019-04-30T01:57:16.128Z,10.07
2019-04-30T01:58:16.031Z,10.16
2019-04-30T01:59:16.108Z,10.10
2019-04-30T02:00:16.009Z,10.02
2019-04-30T02:01:16.123Z,10.06
2019-04-30T02:02:16.023Z,9.96
2019-04-30T02:03:16.038Z,10.11
2019-04-30T02:04:15.964Z,10.07
2019-04-30T02:05:16.050Z,9.99
2019-04-30T02:06:15.946Z,10.06
2019-04-30T02:07:15.994Z,9.98
2019-04-30T02:08:15.926Z,10.07
2019-04-30T02:09:15.973Z,9.98
2019-04-30T02:10:15.897Z,9.98
2019-04-30T02:11:15.989Z,9.95
2019-04-30T02:12:15.916Z,10.07
2019-04-30T02:13:15.900Z,9.96
2019-04-30T02:14:15.979Z,9.98
2019-04-30T02:15:15.914Z,9.93
2019-04-30T02:16:15.833Z,9.86
2019-04-30T02:17:15.961Z,9.85
2019-04-30T02:18:15.852Z,9.88
2019-04-30T02:19:15.841Z,9.96
2019-04-30T02:20:15.796Z,9.96
2019-04-30T02:21:15.957Z,9.93
2019-04-30T02:22:15.798Z,9.91
2019-04-30T02:23:15.865Z,9.83
2019-04-30T02:24:15.753Z,9.81
2019-04-30T02:25:15.781Z,9.81
2019-04-30T02:26:15.722Z,9.81
2019-04-30T02:27:15.820Z,9.81
2019-04-30T02:28:15.734Z,9.85
2019-04-30T02:29:15.805Z,9.81
2019-04-30T02:30:15.679Z,9.77
2019-04-30T02:31:15.833Z,9.75
2019-04-30T02:32:15.685Z,9.74
2019-04-30T02:33:15.759Z,9.75
2019-04-30T02:34:15.634Z,9.65
2019-04-30T02:35:15.753Z,9.63
2019-04-30T02:36:15.649Z,9.73
2019-04-30T02:37:15.658Z,9.60
2019-04-30T02:38:15.618Z,9.52
2019-04-30T02:39:15.670Z,9.48
2019-04-30T02:40:15.573Z,9.50
2019-04-30T02:41:15.582Z,9.44
2019-04-30T02:42:15.545Z,9.41
2019-04-30T02:43:15.627Z,9.38
2019-04-30T02:44:15.531Z,9.32
2019-04-30T02:45:15.609Z,9.44
2019-04-30T02:46:15.500Z,9.37
2019-04-30T02:47:15.523Z,9.32
2019-04-30T02:48:15.511Z,9.34
2019-04-30T02:49:15.569Z,9.31
2019-04-30T02:50:21.570Z,9.27
2019-04-30T02:51:16.469Z,9.27
2019-04-30T02:52:15.439Z,9.27
2019-04-30T02:53:15.492Z,9.26
2019-04-30T02:54:15.417Z,9.22
2019-04-30T02:55:15.475Z,9.16
2019-04-30T02:56:15.390Z,9.22
2019-04-30T02:57:15.487Z,9.06
2019-04-30T02:58:15.374Z,9.13
2019-04-30T02:59:15.428Z,9.01
2019-04-30T03:00:15.351Z,8.98
2019-04-30T03:01:15.420Z,9.04
2019-04-30T03:02:15.323Z,8.93
2019-04-30T03:03:15.435Z,8.88
2019-04-30T03:04:15.326Z,8.78
2019-04-30T03:05:15.345Z,8.89
2019-04-30T03:06:15.278Z,8.80
2019-04-30T03:07:15.367Z,8.76
2019-04-30T03:08:15.286Z,8.68
2019-04-30T03:09:15.370Z,8.73
2019-04-30T03:10:15.249Z,8.68
2019-04-30T03:11:15.280Z,8.65
2019-04-30T03:12:15.212Z,8.67
2019-04-30T03:13:15.294Z,8.60
2019-04-30T03:14:15.229Z,8.58
2019-04-30T03:15:15.312Z,8.55
2019-04-30T03:16:15.205Z,8.58
2019-04-30T03:17:15.219Z,8.65
2019-04-30T03:18:15.153Z,8.50
2019-04-30T03:19:15.263Z,8.47
2019-04-30T03:20:27.752Z,8.39
2019-04-30T03:21:16.121Z,8.54
2019-04-30T03:22:15.150Z,8.49
2019-04-30T03:23:15.100Z,8.39
2019-04-30T03:24:15.218Z,8.40
2019-04-30T03:25:15.078Z,8.42
2019-04-30T03:26:15.188Z,8.40
2019-04-30T03:27:15.063Z,8.36
2019-04-30T03:28:15.093Z,8.34
2019-04-30T03:29:15.074Z,8.36
2019-04-30T03:30:15.108Z,8.40
2019-04-30T03:31:15.015Z,8.39
2019-04-30T03:32:15.123Z,8.36
2019-04-30T03:33:15.091Z,8.31
2019-04-30T03:34:24.182Z,8.29
2019-04-30T03:35:16.000Z,8.25
2019-04-30T03:36:15.046Z,8.39
2019-04-30T03:37:14.954Z,8.28
2019-04-30T03:38:15.073Z,8.29
2019-04-30T03:39:14.933Z,8.25
2019-04-30T03:40:14.999Z,8.20
2019-04-30T03:41:14.919Z,8.27
2019-04-30T03:42:14.990Z,8.20
2019-04-30T03:43:14.883Z,8.22
2019-04-30T03:44:21.470Z,8.24
2019-04-30T03:45:15.898Z,8.13
2019-04-30T03:46:14.916Z,8.17
2019-04-30T03:47:14.843Z,8.07
2019-04-30T03:48:14.924Z,8.13
2019-04-30T03:49:14.819Z,8.12
2019-04-30T03:50:14.877Z,8.03
2019-04-30T03:51:14.810Z,8.06
2019-04-30T03:52:14.853Z,8.14
2019-04-30T03:53:14.778Z,8.07
2019-04-30T03:54:14.866Z,7.96
2019-04-30T03:55:14.790Z,8.03
2019-04-30T03:56:14.776Z,7.96
2019-04-30T03:57:14.749Z,7.92
2019-04-30T03:58:14.789Z,7.89
2019-04-30T03:59:14.723Z,7.79
2019-04-30T04:00:14.832Z,7.77
2019-04-30T04:01:14.710Z,7.81
2019-04-30T04:02:14.733Z,7.82
2019-04-30T04:03:14.681Z,7.79
2019-04-30T04:04:14.727Z,7.74
2019-04-30T04:05:14.673Z,7.82
2019-04-30T04:06:14.773Z,7.77
2019-04-30T04:07:14.634Z,7.76
2019-04-30T04:08:14.655Z,7.73
2019-04-30T04:09:14.614Z,7.71
2019-04-30T04:10:14.666Z,7.70
2019-04-30T04:11:14.603Z,7.73
2019-04-30T04:12:14.680Z,7.74
2019-04-30T04:13:14.557Z,7.58
2019-04-30T04:14:14.595Z,7.73
2019-04-30T04:15:14.538Z,7.57
2019-04-30T04:16:14.634Z,7.76
2019-04-30T04:17:14.512Z,7.69
2019-04-30T04:18:14.628Z,7.55
2019-04-30T04:19:14.494Z,7.70
2019-04-30T04:20:14.538Z,7.54
2019-04-30T04:21:16.899Z,7.55
2019-04-30T04:22:14.551Z,7.58
2019-04-30T04:23:14.454Z,7.58
2019-04-30T04:24:14.566Z,7.60
2019-04-30T04:25:14.433Z,7.66
2019-04-30T04:26:14.506Z,7.57
2019-04-30T04:27:14.407Z,7.60
2019-04-30T04:28:14.492Z,7.54
2019-04-30T04:29:14.381Z,7.52
2019-04-30T04:30:14.508Z,7.57
2019-04-30T04:31:14.393Z,7.55
2019-04-30T04:32:14.423Z,7.57
2019-04-30T04:33:14.341Z,7.58
2019-04-30T04:34:14.431Z,7.55
2019-04-30T04:35:14.339Z,7.57
2019-04-30T04:36:14.370Z,7.50
2019-04-30T04:37:14.305Z,7.50
2019-04-30T04:38:14.356Z,7.60
2019-04-30T04:39:14.273Z,7.54
2019-04-30T04:40:14.374Z,7.52
2019-04-30T04:41:14.288Z,7.62
2019-04-30T04:42:14.275Z,7.60
2019-04-30T04:43:14.239Z,7.52
2019-04-30T04:44:14.297Z,7.58
2019-04-30T04:45:14.209Z,7.58
2019-04-30T04:46:14.332Z,7.51
2019-04-30T04:47:16.081Z,7.60
2019-04-30T04:48:14.216Z,7.63
2019-04-30T04:49:14.169Z,7.63
2019-04-30T04:50:14.230Z,7.62
2019-04-30T04:51:27.737Z,7.60
2019-04-30T04:52:15.173Z,7.54
2019-04-30T04:53:14.148Z,7.57
2019-04-30T04:54:14.113Z,7.55
2019-04-30T04:55:14.162Z,7.70
2019-04-30T04:56:14.181Z,7.74
2019-04-30T04:57:18.407Z,7.74
2019-04-30T04:58:15.074Z,7.70
2019-04-30T04:59:14.189Z,7.73
2019-04-30T05:00:14.044Z,7.73
2019-04-30T05:01:14.103Z,7.76
2019-04-30T05:02:14.058Z,7.77
2019-04-30T05:03:14.115Z,7.77
2019-04-30T05:04:14.005Z,7.73
2019-04-30T05:05:14.027Z,7.82
2019-04-30T05:06:14.005Z,7.77
2019-04-30T05:07:14.074Z,7.73
2019-04-30T05:08:14.108Z,7.79
2019-04-30T05:09:14.061Z,7.84
2019-04-30T05:10:13.934Z,7.92
2019-04-30T05:11:13.967Z,7.92
2019-04-30T05:12:13.952Z,7.94
2019-04-30T05:13:14.224Z,7.99
2019-04-30T05:14:13.890Z,7.95
2019-04-30T05:15:14.304Z,7.99
2019-04-30T05:16:13.869Z,8.00
2019-04-30T05:17:13.907Z,8.00
2019-04-30T05:18:13.901Z,8.06
2019-04-30T05:19:13.919Z,8.00
2019-04-30T05:20:13.827Z,8.04
2019-04-30T05:21:13.933Z,8.10
2019-04-30T05:22:13.807Z,8.13
2019-04-30T05:23:13.874Z,8.13
2019-04-30T05:24:13.782Z,8.12
2019-04-30T05:25:13.860Z,8.13
2019-04-30T05:26:13.756Z,8.18
2019-04-30T05:27:13.871Z,8.10
2019-04-30T05:28:13.766Z,8.21
2019-04-30T05:29:13.784Z,8.22
2019-04-30T05:30:13.717Z,8.25
2019-04-30T05:31:13.802Z,8.34
2019-04-30T05:32:13.697Z,8.37
2019-04-30T05:33:14.918Z,8.43
2019-04-30T05:34:13.676Z,8.52
2019-04-30T05:35:13.725Z,8.54
2019-04-30T05:36:13.648Z,8.50
2019-04-30T05:37:13.743Z,8.55
2019-04-30T05:38:13.656Z,8.67
2019-04-30T05:39:13.654Z,8.58
2019-04-30T05:40:13.609Z,8.61
2019-04-30T05:41:13.670Z,8.67
2019-04-30T05:42:13.584Z,8.65
2019-04-30T05:43:13.709Z,8.70
2019-04-30T05:44:13.566Z,8.64
2019-04-30T05:45:13.598Z,8.68
2019-04-30T05:46:14.177Z,8.78
2019-04-30T05:47:13.615Z,8.79
2019-04-30T05:48:13.556Z,8.82
2019-04-30T05:49:13.627Z,8.89
2019-04-30T05:50:13.503Z,8.98
2019-04-30T05:51:13.536Z,9.00
2019-04-30T05:52:13.483Z,9.08
2019-04-30T05:53:13.574Z,9.12
2019-04-30T05:54:13.483Z,9.15
2019-04-30T05:55:13.561Z,9.12
2019-04-30T05:56:13.446Z,9.24
2019-04-30T05:57:13.482Z,9.19
2019-04-30T05:58:13.417Z,9.13
2019-04-30T05:59:13.525Z,9.22
2019-04-30T06:00:13.396Z,9.24
2019-04-30T06:01:13.494Z,9.30
2019-04-30T06:02:13.366Z,9.34
2019-04-30T06:03:24.690Z,9.35
2019-04-30T06:04:14.384Z,9.45
2019-04-30T06:05:13.425Z,9.44
2019-04-30T06:06:13.332Z,9.38
2019-04-30T06:07:13.436Z,9.37
2019-04-30T06:08:13.300Z,9.45
2019-04-30T06:09:18.727Z,9.49
2019-04-30T06:10:14.276Z,9.55
2019-04-30T06:11:13.361Z,9.62
2019-04-30T06:12:13.257Z,9.63
2019-04-30T06:13:13.273Z,9.65
2019-04-30T06:14:13.278Z,9.62
2019-04-30T06:15:13.287Z,9.67
2019-04-30T06:16:13.217Z,9.74
2019-04-30T06:17:13.304Z,9.80
2019-04-30T06:18:14.034Z,9.86
2019-04-30T06:19:13.247Z,9.95
2019-04-30T06:20:18.209Z,9.85
2019-04-30T06:21:14.252Z,9.86
2019-04-30T06:22:13.153Z,9.81
2019-04-30T06:23:13.242Z,9.83
2019-04-30T06:24:13.146Z,9.80
2019-04-30T06:25:13.193Z,9.68
2019-04-30T06:26:13.378Z,9.60
2019-04-30T06:27:13.166Z,9.68
2019-04-30T06:28:13.087Z,9.53
2019-04-30T06:29:13.211Z,9.56
2019-04-30T06:30:13.109Z,9.48
2019-04-30T06:31:13.093Z,9.48
2019-04-30T06:32:13.048Z,9.40
2019-04-30T06:33:13.106Z,9.49
2019-04-30T06:34:13.027Z,9.52
2019-04-30T06:35:13.151Z,9.58
2019-04-30T06:36:13.011Z,9.65
2019-04-30T06:37:13.044Z,9.77
2019-04-30T06:38:12.986Z,9.67
2019-04-30T06:39:13.049Z,9.83
2019-04-30T06:40:12.985Z,9.83
2019-04-30T06:41:13.082Z,9.89
2019-04-30T06:42:13.193Z,9.91
2019-04-30T06:43:12.970Z,10.01
2019-04-30T06:44:12.936Z,10.07
2019-04-30T06:45:13.013Z,10.10
2019-04-30T06:46:12.896Z,10.18
2019-04-30T06:47:12.996Z,10.24
2019-04-30T06:48:12.884Z,10.34
2019-04-30T06:49:12.907Z,10.38
2019-04-30T06:50:12.883Z,10.46
2019-04-30T06:51:12.929Z,10.60
2019-04-30T06:52:20.641Z,10.66
2019-04-30T06:53:13.817Z,10.75
2019-04-30T06:54:12.844Z,10.95
2019-04-30T06:55:12.834Z,11.06
2019-04-30T06:56:12.863Z,11.12
2019-04-30T06:57:12.776Z,11.21
2019-04-30T06:58:15.533Z,11.23
2019-04-30T06:59:12.760Z,11.26
2019-04-30T07:00:12.812Z,11.33
2019-04-30T07:01:12.740Z,11.41
2019-04-30T07:02:12.795Z,11.42
2019-04-30T07:03:12.706Z,11.30
2019-04-30T07:04:12.811Z,11.20
2019-04-30T07:05:12.721Z,11.08
2019-04-30T07:06:12.729Z,10.99
2019-04-30T07:07:14.262Z,10.94
2019-04-30T07:08:13.758Z,11.01
2019-04-30T07:09:12.644Z,10.95
2019-04-30T07:10:16.919Z,10.94
2019-04-30T07:11:13.660Z,10.90
2019-04-30T07:12:22.950Z,10.87
2019-04-30T07:13:13.600Z,10.84
2019-04-30T07:14:12.700Z,10.83
2019-04-30T07:15:13.789Z,10.87
2019-04-30T07:16:12.723Z,10.86
2019-04-30T07:17:12.560Z,10.95
2019-04-30T07:18:12.598Z,11.06
2019-04-30T07:19:12.538Z,11.08
2019-04-30T07:20:12.615Z,11.05
2019-04-30T07:21:12.514Z,11.19
2019-04-30T07:22:12.657Z,11.23
2019-04-30T07:23:12.499Z,11.41
2019-04-30T07:24:12.537Z,11.35
2019-04-30T07:25:12.473Z,11.46
2019-04-30T07:26:13.727Z,11.48
2019-04-30T07:27:13.478Z,11.44
2019-04-30T07:28:12.475Z,11.31
2019-04-30T07:29:12.435Z,11.26
2019-04-30T07:30:12.479Z,11.24
2019-04-30T07:31:14.657Z,11.26
2019-04-30T07:32:12.493Z,11.20
2019-04-30T07:33:12.387Z,11.24
2019-04-30T07:34:12.538Z,11.24
2019-04-30T07:35:12.362Z,11.26
2019-04-30T07:36:12.506Z,11.24
2019-04-30T07:37:20.431Z,11.24
2019-04-30T07:38:13.326Z,11.26
2019-04-30T07:39:12.618Z,11.17
2019-04-30T07:40:12.306Z,11.21
2019-04-30T07:41:12.388Z,11.08
2019-04-30T07:42:12.287Z,11.20
2019-04-30T07:43:12.368Z,11.06
2019-04-30T07:44:29.450Z,11.16
2019-04-30T07:45:13.263Z,11.26
2019-04-30T07:46:12.330Z,11.31
2019-04-30T07:47:12.239Z,11.35
2019-04-30T07:48:12.302Z,11.28
2019-04-30T07:49:12.244Z,11.36
2019-04-30T07:50:12.849Z,11.54
2019-04-30T07:51:12.458Z,11.66
2019-04-30T07:52:12.927Z,11.77
2019-04-30T07:53:12.868Z,11.84
2019-04-30T07:54:12.238Z,11.98
2019-04-30T07:55:12.145Z,11.98
2019-04-30T07:56:24.221Z,12.00
2019-04-30T07:57:13.201Z,12.16
2019-04-30T07:58:12.374Z,12.21
2019-04-30T07:59:12.109Z,12.29
2019-04-30T08:00:12.177Z,12.25
2019-04-30T08:01:12.078Z,12.07
2019-04-30T08:02:14.855Z,12.11
2019-04-30T08:03:12.348Z,12.13
2019-04-30T08:04:12.102Z,11.88
2019-04-30T08:05:12.042Z,11.97
2019-04-30T08:06:12.219Z,12.01
2019-04-30T08:07:12.084Z,12.05
2019-04-30T08:08:21.114Z,12.08
2019-04-30T08:09:12.992Z,12.11
2019-04-30T08:10:12.039Z,12.12
2019-04-30T08:11:23.061Z,12.36
2019-04-30T08:12:21.510Z,12.51
2019-04-30T08:13:15.176Z,12.80
2019-04-30T08:14:12.119Z,13.09
2019-04-30T08:15:11.929Z,13.16
2019-04-30T08:16:11.979Z,13.25
2019-04-30T08:17:11.906Z,13.36
2019-04-30T08:18:12.029Z,13.62
2019-04-30T08:19:11.901Z,13.63
2019-04-30T08:20:11.908Z,13.68
2019-04-30T08:21:11.871Z,13.83
2019-04-30T08:22:11.918Z,13.98
2019-04-30T08:23:20.350Z,14.12
2019-04-30T08:24:12.834Z,14.24
2019-04-30T08:25:11.940Z,14.49
2019-04-30T08:26:11.810Z,14.46
2019-04-30T08:27:13.032Z,14.23
2019-04-30T08:28:11.894Z,14.09
2019-04-30T08:29:11.870Z,14.06
2019-04-30T08:30:23.002Z,14.01
2019-04-30T08:31:15.472Z,13.93
2019-04-30T08:32:11.785Z,13.75
2019-04-30T08:33:11.764Z,13.61
2019-04-30T08:34:11.799Z,13.57
2019-04-30T08:35:11.708Z,13.41
2019-04-30T08:36:11.814Z,13.22
2019-04-30T08:37:17.053Z,13.12
2019-04-30T08:38:12.799Z,13.01
2019-04-30T08:39:11.680Z,12.94
2019-04-30T08:40:11.743Z,12.94
2019-04-30T08:41:11.644Z,12.91
2019-04-30T08:42:11.922Z,12.88
2019-04-30T08:43:11.656Z,13.01
2019-04-30T08:44:11.700Z,13.04
2019-04-30T08:45:11.608Z,13.21
2019-04-30T08:46:11.681Z,13.25
2019-04-30T08:47:11.584Z,13.46
2019-04-30T08:48:11.630Z,13.41
2019-04-30T08:49:11.701Z,13.38
2019-04-30T08:50:11.893Z,13.47
2019-04-30T08:51:13.616Z,13.62
2019-04-30T08:52:11.945Z,13.75
2019-04-30T08:53:11.895Z,13.90
2019-04-30T08:54:11.536Z,14.01
2019-04-30T08:55:16.445Z,14.04
2019-04-30T08:56:12.481Z,13.99
2019-04-30T08:57:11.549Z,14.02
2019-04-30T08:58:14.870Z,14.17
2019-04-30T08:59:11.598Z,14.16
2019-04-30T09:00:11.818Z,14.24
2019-04-30T09:01:11.487Z,14.31
2019-04-30T09:02:15.904Z,14.38
2019-04-30T09:03:13.008Z,14.41
2019-04-30T09:04:11.445Z,14.53
2019-04-30T09:05:11.506Z,14.57
2019-04-30T09:06:11.376Z,14.57
2019-04-30T09:07:11.420Z,14.69
2019-04-30T09:08:11.358Z,14.66
2019-04-30T09:09:11.464Z,14.67
2019-04-30T09:10:11.489Z,14.69
2019-04-30T09:11:22.480Z,14.66
2019-04-30T09:12:12.324Z,14.86
2019-04-30T09:13:11.355Z,14.91
2019-04-30T09:14:11.317Z,15.03
2019-04-30T09:15:11.374Z,15.18
2019-04-30T09:16:11.326Z,15.30
2019-04-30T09:17:11.293Z,15.38
2019-04-30T09:18:12.593Z,15.43
2019-04-30T09:19:11.342Z,15.64
2019-04-30T09:20:11.226Z,15.68
2019-04-30T09:21:11.309Z,15.62
2019-04-30T09:22:15.073Z,15.77
2019-04-30T09:23:11.385Z,15.67
2019-04-30T09:24:11.209Z,15.59
2019-04-30T09:25:11.241Z,15.53
2019-04-30T09:26:11.328Z,15.41
2019-04-30T09:27:11.249Z,15.18
2019-04-30T09:28:11.133Z,15.11
2019-04-30T09:29:11.203Z,15.12
2019-04-30T09:30:11.112Z,14.98
2019-04-30T09:31:11.285Z,14.90
2019-04-30T09:32:11.085Z,14.78
2019-04-30T09:33:11.299Z,14.64
2019-04-30T09:34:17.111Z,14.49
2019-04-30T09:35:12.124Z,14.49
2019-04-30T09:36:11.049Z,14.52
2019-04-30T09:37:11.132Z,14.59
2019-04-30T09:38:11.021Z,14.66
2019-04-30T09:39:11.160Z,14.80
2019-04-30T09:40:18.261Z,15.12
2019-04-30T09:41:12.087Z,15.16
2019-04-30T09:42:10.979Z,15.20
2019-04-30T09:43:11.060Z,15.37
2019-04-30T09:44:10.954Z,15.58
2019-04-30T09:45:10.998Z,15.60
2019-04-30T09:46:21.273Z,15.84
2019-04-30T09:47:11.918Z,15.98
2019-04-30T09:48:10.985Z,16.10
2019-04-30T09:49:10.907Z,16.29
2019-04-30T09:50:11.057Z,16.03
2019-04-30T09:51:11.533Z,15.92
2019-04-30T09:52:11.065Z,16.03
2019-04-30T09:53:11.202Z,16.10
2019-04-30T09:54:12.750Z,16.04
2019-04-30T09:55:10.881Z,16.03
2019-04-30T09:56:10.978Z,16.04
2019-04-30T09:57:11.490Z,15.88
2019-04-30T09:58:17.148Z,15.70
2019-04-30T09:59:11.790Z,15.76
2019-04-30T10:00:10.901Z,15.99
2019-04-30T10:01:10.804Z,16.27
2019-04-30T10:02:10.891Z,16.41
2019-04-30T10:03:11.717Z,16.52
2019-04-30T10:04:11.204Z,16.52
2019-04-30T10:05:11.530Z,16.57
2019-04-30T10:06:10.842Z,16.73
2019-04-30T10:07:10.716Z,16.63
2019-04-30T10:08:10.720Z,16.78
2019-04-30T10:09:10.682Z,16.84
2019-04-30T10:10:11.391Z,16.72
2019-04-30T10:11:10.656Z,16.52
2019-04-30T10:12:10.755Z,16.72
2019-04-30T10:13:10.646Z,16.82
2019-04-30T10:14:10.660Z,16.96
2019-04-30T10:15:10.657Z,16.99
2019-04-30T10:16:10.670Z,16.96
2019-04-30T10:17:10.590Z,16.92
2019-04-30T10:18:10.690Z,17.00
2019-04-30T10:19:10.604Z,16.99
2019-04-30T10:20:10.630Z,16.81
2019-04-30T10:21:10.575Z,16.72
2019-04-30T10:22:10.613Z,16.69
2019-04-30T10:23:10.529Z,16.55
2019-04-30T10:24:15.416Z,16.59
2019-04-30T10:25:11.551Z,16.78
2019-04-30T10:26:10.550Z,16.82
2019-04-30T10:27:13.258Z,17.05
2019-04-30T10:28:10.560Z,17.09
2019-04-30T10:29:10.461Z,17.21
2019-04-30T10:30:10.590Z,17.39
2019-04-30T10:31:10.466Z,17.39
2019-04-30T10:32:10.485Z,17.51
2019-04-30T10:33:10.423Z,17.43
2019-04-30T10:34:10.491Z,17.62
2019-04-30T10:35:10.399Z,17.71
2019-04-30T10:36:10.645Z,17.74
2019-04-30T10:37:10.406Z,17.89
2019-04-30T10:38:10.421Z,17.96
2019-04-30T10:39:10.363Z,17.98
2019-04-30T10:40:10.543Z,17.96
2019-04-30T10:41:10.374Z,18.14
2019-04-30T10:42:10.491Z,18.02
2019-04-30T10:43:10.322Z,18.11
2019-04-30T10:44:10.363Z,18.11
2019-04-30T10:45:10.285Z,18.11
2019-04-30T10:46:10.520Z,18.19
2019-04-30T10:47:10.301Z,18.11
2019-04-30T10:48:10.285Z,17.73
2019-04-30T10:49:10.242Z,17.71
2019-04-30T10:50:10.303Z,17.55
2019-04-30T10:51:10.221Z,17.73
2019-04-30T10:52:10.344Z,17.74
2019-04-30T10:53:12.439Z,17.80
2019-04-30T10:54:23.034Z,17.92
2019-04-30T10:55:11.176Z,17.89
2019-04-30T10:56:10.355Z,18.02
2019-04-30T10:57:10.181Z,18.23
2019-04-30T10:58:10.247Z,18.14
2019-04-30T10:59:10.138Z,17.99
2019-04-30T11:00:10.192Z,18.14
2019-04-30T11:01:10.115Z,18.25
2019-04-30T11:02:10.215Z,18.38
2019-04-30T11:03:19.567Z,18.50
2019-04-30T11:04:11.090Z,18.68
2019-04-30T11:05:10.191Z,18.71
2019-04-30T11:06:10.059Z,18.74
2019-04-30T11:07:10.154Z,18.83
2019-04-30T11:08:10.037Z,18.94
2019-04-30T11:09:10.116Z,18.99
2019-04-30T11:10:10.014Z,18.93
2019-04-30T11:11:10.131Z,18.82
2019-04-30T11:12:10.027Z,18.94
2019-04-30T11:13:10.042Z,19.10
2019-04-30T11:14:09.984Z,19.07
2019-04-30T11:15:10.058Z,19.10
2019-04-30T11:16:14.740Z,19.21
2019-04-30T11:17:11.251Z,19.23
2019-04-30T11:18:10.205Z,19.31
2019-04-30T11:19:10.223Z,19.46
2019-04-30T11:20:10.475Z,19.47
2019-04-30T11:21:10.245Z,19.47
2019-04-30T11:22:10.116Z,19.55
2019-04-30T11:23:14.501Z,19.68
2019-04-30T11:24:11.089Z,19.64
2019-04-30T11:25:10.388Z,19.57
2019-04-30T11:26:10.442Z,19.35
2019-04-30T11:27:11.158Z,19.28
2019-04-30T11:28:10.243Z,19.23
2019-04-30T11:29:10.147Z,19.28
2019-04-30T11:30:20.749Z,19.34
2019-04-30T11:31:10.998Z,19.43
2019-04-30T11:32:10.115Z,19.61
2019-04-30T11:33:09.977Z,19.76
2019-04-30T11:34:09.790Z,19.83
2019-04-30T11:35:09.788Z,19.92
2019-04-30T11:36:09.792Z,19.98
2019-04-30T11:37:09.743Z,20.00
2019-04-30T11:38:09.815Z,20.15
2019-04-30T11:39:09.726Z,20.20
2019-04-30T11:40:09.718Z,20.20
2019-04-30T11:41:09.677Z,20.23
2019-04-30T11:42:09.734Z,20.04
2019-04-30T11:43:09.689Z,19.70
2019-04-30T11:44:09.746Z,19.43
2019-04-30T11:45:09.641Z,19.55
2019-04-30T11:46:09.663Z,19.62
2019-04-30T11:47:09.666Z,19.60
2019-04-30T11:48:09.706Z,19.70
2019-04-30T11:49:09.755Z,19.71
2019-04-30T11:50:09.692Z,19.72
2019-04-30T11:51:09.576Z,19.71
2019-04-30T11:52:09.600Z,19.79
2019-04-30T11:53:22.614Z,19.79
2019-04-30T11:54:10.573Z,19.87
2019-04-30T11:55:09.844Z,19.90
2019-04-30T11:56:09.533Z,19.90
2019-04-30T11:57:09.532Z,19.71
2019-04-30T11:58:21.146Z,19.83
2019-04-30T11:59:10.482Z,19.86
2019-04-30T12:00:10.762Z,19.83
2019-04-30T12:01:09.475Z,19.82
2019-04-30T12:02:09.571Z,19.71
2019-04-30T12:03:09.435Z,19.83
2019-04-30T12:04:09.530Z,19.98
2019-04-30T12:05:09.445Z,19.90
2019-04-30T12:06:09.496Z,19.90
2019-04-30T12:07:09.397Z,19.92
2019-04-30T12:08:09.600Z,19.98
2019-04-30T12:09:09.419Z,20.01
2019-04-30T12:10:09.564Z,20.20
2019-04-30T12:11:09.340Z,20.31
2019-04-30T12:12:09.448Z,20.13
2019-04-30T12:13:09.650Z,20.08
2019-04-30T12:14:09.396Z,20.20
2019-04-30T12:15:10.115Z,20.42
2019-04-30T12:16:09.383Z,20.40
2019-04-30T12:17:09.301Z,20.53
2019-04-30T12:18:09.381Z,20.57
2019-04-30T12:19:09.275Z,20.51
2019-04-30T12:20:09.325Z,20.10
2019-04-30T12:21:09.237Z,19.90
2019-04-30T12:22:09.300Z,19.87
2019-04-30T12:23:11.723Z,19.60
2019-04-30T12:24:09.316Z,19.46
2019-04-30T12:25:10.018Z,19.68
2019-04-30T12:26:09.344Z,19.80
2019-04-30T12:27:09.183Z,19.82
2019-04-30T12:28:09.544Z,20.02
2019-04-30T12:29:11.179Z,20.10
2019-04-30T12:30:09.163Z,20.31
2019-04-30T12:31:09.879Z,20.38
2019-04-30T12:32:09.112Z,20.42
2019-04-30T12:33:09.177Z,20.17
2019-04-30T12:34:09.091Z,19.92
2019-04-30T12:35:09.244Z,19.71
2019-04-30T12:36:09.221Z,19.42
2019-04-30T12:37:10.729Z,19.24
2019-04-30T12:38:09.067Z,19.27
2019-04-30T12:39:09.227Z,19.58
2019-04-30T12:40:10.835Z,19.64
2019-04-30T12:41:10.053Z,19.79
2019-04-30T12:42:09.130Z,19.95
2019-04-30T12:43:08.982Z,20.08
2019-04-30T12:44:09.056Z,20.22
2019-04-30T12:45:09.539Z,20.34
2019-04-30T12:46:09.063Z,20.41
2019-04-30T12:47:09.666Z,20.25
2019-04-30T12:48:08.977Z,20.22
2019-04-30T12:49:10.241Z,20.27
2019-04-30T12:50:09.520Z,20.48
2019-04-30T12:51:08.940Z,20.54
2019-04-30T12:52:09.011Z,20.60
2019-04-30T12:53:09.486Z,20.64
2019-04-30T12:54:09.013Z,20.81
2019-04-30T12:55:15.200Z,20.78
2019-04-30T12:56:09.985Z,20.90
2019-04-30T12:57:11.032Z,20.96
2019-04-30T12:58:09.779Z,20.82
2019-04-30T12:59:08.822Z,20.82
2019-04-30T13:00:09.412Z,20.73
2019-04-30T13:01:09.076Z,20.76